createdAt,value
2018-12-23T00:00:47.448Z,100937.81
2018-12-23T00:03:13.447Z,100934.67
2018-12-23T00:05:39.633Z,100940.94
2018-12-23T00:08:05.704Z,100941.73
2018-12-23T00:10:31.800Z,100949.15
2018-12-23T00:12:57.758Z,100947.50
2018-12-23T00:15:23.747Z,100954.07
2018-12-23T00:17:49.773Z,100951.14
2018-12-23T00:20:15.789Z,100953.46
2018-12-23T00:22:41.863Z,100948.57
2018-12-23T00:25:07.822Z,100952.58
2018-12-23T00:27:34.247Z,100956.70
2018-12-23T00:30:00.229Z,100951.95
2018-12-23T00:32:26.309Z,100951.11
2018-12-23T00:34:52.296Z,100949.15
2018-12-23T00:37:18.322Z,100948.23
2018-12-23T00:39:44.264Z,100952.86
2018-12-23T00:42:10.271Z,100950.02
2018-12-23T00:44:36.244Z,100949.75
2018-12-23T00:47:02.251Z,100954.23
2018-12-23T00:49:28.250Z,100960.03
2018-12-23T00:51:54.257Z,100964.91
2018-12-23T00:54:20.215Z,100972.36
2018-12-23T00:56:46.218Z,100976.84
2018-12-23T00:59:12.496Z,100982.30
2018-12-23T01:01:38.553Z,100978.79
2018-12-23T01:04:04.629Z,100980.33
2018-12-23T01:06:30.657Z,100978.92
2018-12-23T01:08:56.641Z,100991.19
2018-12-23T01:11:22.643Z,100987.41
2018-12-23T01:13:48.708Z,100990.24
2018-12-23T01:16:14.664Z,100996.79
2018-12-23T01:18:41.182Z,100988.41
2018-12-23T01:21:07.154Z,100986.64
2018-12-23T01:23:33.212Z,100992.29
2018-12-23T01:25:59.218Z,100996.97
2018-12-23T01:28:25.193Z,100991.08
2018-12-23T01:30:51.190Z,100991.32
2018-12-23T01:33:17.148Z,100997.72
2018-12-23T01:35:43.138Z,101001.41
2018-12-23T01:38:09.224Z,100998.13
2018-12-23T01:40:35.216Z,100996.79
2018-12-23T01:43:01.850Z,100998.78
2018-12-23T01:45:27.866Z,100999.26
2018-12-23T01:47:53.834Z,101005.26
2018-12-23T01:50:19.814Z,101007.13
2018-12-23T01:52:45.802Z,100994.28
2018-12-23T01:55:11.825Z,100995.25
2018-12-23T01:57:37.797Z,101004.98
2018-12-23T02:00:05.297Z,100995.38
2018-12-23T02:02:31.318Z,100984.41
2018-12-23T02:04:57.323Z,100983.91
2018-12-23T02:07:23.281Z,100988.91
2018-12-23T02:09:49.409Z,100990.06
2018-12-23T02:12:20.477Z,100996.28
2018-12-23T02:14:46.790Z,100992.66
2018-12-23T02:17:12.787Z,100993.78
2018-12-23T02:19:38.798Z,100994.76
2018-12-23T02:22:04.745Z,100990.75
2018-12-23T02:24:30.761Z,100983.84
2018-12-23T02:26:56.834Z,100990.53
2018-12-23T02:29:22.868Z,100993.53
2018-12-23T02:31:48.835Z,101000.41
2018-12-23T02:34:14.845Z,100999.02
2018-12-23T02:36:40.793Z,100989.59
2018-12-23T02:39:06.900Z,100993.04
2018-12-23T02:41:32.899Z,100994.41
2018-12-23T02:43:58.871Z,100985.22
2018-12-23T02:46:24.875Z,100981.78
2018-12-23T02:48:50.829Z,100976.27
2018-12-23T02:51:16.831Z,100976.63
2018-12-23T02:53:42.810Z,100977.91
2018-12-23T02:56:08.799Z,100985.01
2018-12-23T02:58:34.759Z,100985.31
2018-12-23T03:01:00.766Z,100991.94
2018-12-23T03:03:26.717Z,100994.07
2018-12-23T03:05:52.869Z,100995.01
2018-12-23T03:08:18.836Z,100992.51
2018-12-23T03:10:44.838Z,100991.16
2018-12-23T03:13:10.826Z,100989.20
2018-12-23T03:15:36.833Z,100999.26
2018-12-23T03:18:02.821Z,100997.54
2018-12-23T03:20:28.794Z,100995.00
2018-12-23T03:22:54.800Z,100996.66
2018-12-23T03:25:20.735Z,100994.19
2018-12-23T03:27:46.747Z,100985.15
2018-12-23T03:30:12.713Z,100987.50
2018-12-23T03:32:38.695Z,100986.50
2018-12-23T03:35:04.793Z,100978.00
2018-12-23T03:37:30.794Z,100979.91
2018-12-23T03:39:56.739Z,100979.72
2018-12-23T03:42:22.730Z,100983.03
2018-12-23T03:44:48.777Z,100984.41
2018-12-23T03:47:14.759Z,100994.71
2018-12-23T03:49:40.732Z,100985.63
2018-12-23T03:52:06.726Z,100990.06
2018-12-23T03:54:32.680Z,100990.01
2018-12-23T03:56:58.726Z,100994.01
2018-12-23T03:59:28.525Z,100989.97
2018-12-23T04:01:54.802Z,100996.51
2018-12-23T04:04:20.764Z,100997.38
2018-12-23T04:06:46.766Z,100995.41
2018-12-23T04:09:19.742Z,100988.41
2018-12-23T04:11:46.305Z,100994.81
2018-12-23T04:14:12.255Z,100984.53
2018-12-23T04:16:38.255Z,100987.85
2018-12-23T04:19:04.275Z,101002.00
2018-12-23T04:21:30.313Z,100992.00
2018-12-23T04:23:56.292Z,100989.16
2018-12-23T04:26:22.380Z,100991.66
2018-12-23T04:28:48.345Z,101000.75
2018-12-23T04:31:14.301Z,100994.13
2018-12-23T04:33:40.329Z,100997.09
2018-12-23T04:36:06.311Z,100996.07
2018-12-23T04:38:32.538Z,100999.69
2018-12-23T04:40:58.547Z,100997.04
2018-12-23T04:43:24.563Z,101005.58
2018-12-23T04:45:50.530Z,100995.96
2018-12-23T04:48:16.515Z,100999.95
2018-12-23T04:50:42.491Z,100998.84
2018-12-23T04:53:08.524Z,100990.58
2018-12-23T04:55:34.477Z,100992.38
2018-12-23T04:58:00.540Z,100992.94
2018-12-23T05:00:26.504Z,100985.20
2018-12-23T05:02:52.558Z,100974.81
2018-12-23T05:05:18.524Z,100983.50
2018-12-23T05:07:44.524Z,100980.09
2018-12-23T05:10:10.526Z,100985.63
2018-12-23T05:12:36.538Z,100986.59
2018-12-23T05:15:02.557Z,100990.64
2018-12-23T05:17:28.570Z,100997.45
2018-12-23T05:19:54.519Z,100991.62
2018-12-23T05:22:20.491Z,100992.23
2018-12-23T05:24:46.508Z,100992.86
2018-12-23T05:27:12.518Z,100989.66
2018-12-23T05:29:38.471Z,100983.09
2018-12-23T05:32:04.479Z,100993.95
2018-12-23T05:34:30.446Z,100988.69
2018-12-23T05:36:56.481Z,100988.92
2018-12-23T05:39:22.489Z,100991.55
2018-12-23T05:41:48.467Z,100988.18
2018-12-23T05:44:14.521Z,100993.27
2018-12-23T05:46:45.722Z,100992.73
2018-12-23T05:49:11.987Z,100977.64
2018-12-23T05:51:37.979Z,100979.66
2018-12-23T05:54:03.982Z,100977.91
2018-12-23T05:56:30.243Z,100978.24
2018-12-23T05:58:56.221Z,100988.07
2018-12-23T06:01:22.227Z,100986.13
2018-12-23T06:03:48.238Z,100982.77
2018-12-23T06:06:14.194Z,100977.20
2018-12-23T06:08:40.175Z,100985.66
2018-12-23T06:11:06.167Z,100985.09
2018-12-23T06:13:32.785Z,100984.18
2018-12-23T06:15:58.750Z,100991.08
2018-12-23T06:18:24.747Z,100998.77
2018-12-23T06:20:50.724Z,100998.52
2018-12-23T06:23:16.721Z,101006.14
2018-12-23T06:25:42.699Z,101005.88
2018-12-23T06:28:08.716Z,101030.85
2018-12-23T06:30:34.692Z,101024.09
2018-12-23T06:33:00.696Z,101013.36
2018-12-23T06:35:26.692Z,101016.95
2018-12-23T06:37:52.779Z,101027.17
2018-12-23T06:40:18.803Z,101027.67
2018-12-23T06:42:44.806Z,101032.14
2018-12-23T06:45:10.815Z,101023.23
2018-12-23T06:47:36.804Z,101027.23
2018-12-23T06:50:03.859Z,101022.83
2018-12-23T06:52:29.852Z,101022.89
2018-12-23T06:54:56.459Z,101019.89
2018-12-23T06:57:22.547Z,101025.30
2018-12-23T06:59:48.548Z,101020.64
2018-12-23T07:02:14.590Z,101023.98
2018-12-23T07:04:40.548Z,101024.01
2018-12-23T07:07:06.672Z,101020.08
2018-12-23T07:09:32.692Z,101031.92
2018-12-23T07:11:58.668Z,101023.81
2018-12-23T07:14:24.651Z,101020.95
2018-12-23T07:16:50.700Z,101032.92
2018-12-23T07:19:16.717Z,101033.89
2018-12-23T07:21:42.722Z,101022.33
2018-12-23T07:24:08.683Z,101023.23
2018-12-23T07:26:34.685Z,101024.14
2018-12-23T07:29:00.651Z,101021.08
2018-12-23T07:31:27.235Z,101018.38
2018-12-23T07:33:56.837Z,101017.60
2018-12-23T07:36:23.084Z,101036.20
2018-12-23T07:38:49.163Z,101024.55
2018-12-23T07:41:15.121Z,101025.44
2018-12-23T07:43:41.123Z,101019.38
2018-12-23T07:46:07.083Z,101016.09
2018-12-23T07:48:33.177Z,101013.89
2018-12-23T07:50:59.219Z,101024.95
2018-12-23T07:53:25.242Z,101022.89
2018-12-23T07:55:51.241Z,101025.33
2018-12-23T07:58:17.391Z,101024.00
2018-12-23T08:00:43.400Z,101025.03
2018-12-23T08:03:09.357Z,101022.64
2018-12-23T08:05:35.391Z,101032.75
2018-12-23T08:08:01.367Z,101026.48
2018-12-23T08:10:27.383Z,101034.14
2018-12-23T08:12:53.363Z,101041.84
2018-12-23T08:15:19.377Z,101035.67
2018-12-23T08:17:45.435Z,101042.08
2018-12-23T08:20:11.467Z,101037.05
2018-12-23T08:22:37.489Z,101030.45
2018-12-23T08:25:03.550Z,101019.17
2018-12-23T08:27:29.569Z,101021.30
2018-12-23T08:29:55.589Z,101027.95
2018-12-23T08:32:21.610Z,101027.38
2018-12-23T08:34:47.595Z,101021.80
2018-12-23T08:37:15.199Z,101008.56
2018-12-23T08:39:41.282Z,101007.66
2018-12-23T08:42:07.423Z,101019.53
2018-12-23T08:44:33.432Z,101011.62
2018-12-23T08:46:59.452Z,101009.64
2018-12-23T08:49:25.543Z,101017.81
2018-12-23T08:51:51.872Z,101013.14
2018-12-23T08:54:17.884Z,101012.94
2018-12-23T08:56:43.964Z,101007.75
2018-12-23T08:59:10.045Z,101011.13
2018-12-23T09:01:36.120Z,101012.38
2018-12-23T09:04:02.228Z,101010.68
2018-12-23T09:06:35.188Z,101008.45
2018-12-23T09:09:01.149Z,101014.55
2018-12-23T09:11:27.262Z,101008.66
2018-12-23T09:13:53.252Z,101003.08
2018-12-23T09:16:19.196Z,101010.50
2018-12-23T09:18:45.276Z,100993.80
2018-12-23T09:21:16.623Z,100994.55
2018-12-23T09:23:42.667Z,100999.94
2018-12-23T09:26:08.619Z,100992.63
2018-12-23T09:28:34.645Z,100993.75
2018-12-23T09:31:00.627Z,100983.89
2018-12-23T09:33:26.826Z,100992.80
2018-12-23T09:35:52.827Z,100993.80
2018-12-23T09:38:18.812Z,100982.05
2018-12-23T09:40:45.475Z,100986.67
2018-12-23T09:43:11.465Z,100973.52
2018-12-23T09:45:37.465Z,100981.91
2018-12-23T09:48:03.450Z,100978.95
2018-12-23T09:50:29.469Z,100976.33
2018-12-23T09:52:55.445Z,100982.92
2018-12-23T09:55:21.547Z,100975.41
2018-12-23T09:57:47.632Z,100980.37
2018-12-23T10:00:13.826Z,100981.00
2018-12-23T10:02:39.815Z,100982.73
2018-12-23T10:05:05.976Z,100978.52
2018-12-23T10:07:31.947Z,100984.78
2018-12-23T10:09:57.943Z,100983.09
2018-12-23T10:12:23.898Z,100970.86
2018-12-23T10:14:49.904Z,100972.69
2018-12-23T10:17:15.970Z,100971.38
2018-12-23T10:19:41.933Z,100970.66
2018-12-23T10:22:07.977Z,100961.11
2018-12-23T10:24:33.933Z,100951.84
2018-12-23T10:26:59.979Z,100949.06
2018-12-23T10:29:25.948Z,100950.52
2018-12-23T10:31:51.955Z,100946.06
2018-12-23T10:34:17.923Z,100942.05
2018-12-23T10:36:43.933Z,100935.28
2018-12-23T10:39:09.911Z,100934.24
2018-12-23T10:41:35.907Z,100927.95
2018-12-23T10:44:01.921Z,100928.84
2018-12-23T10:46:28.009Z,100931.09
2018-12-23T10:48:53.971Z,100935.13
2018-12-23T10:51:19.957Z,100933.52
2018-12-23T10:53:45.959Z,100930.33
2018-12-23T10:56:11.947Z,100936.58
2018-12-23T10:58:37.955Z,100932.81
2018-12-23T11:01:03.986Z,100933.36
2018-12-23T11:03:29.941Z,100928.00
2018-12-23T11:05:55.920Z,100917.48
2018-12-23T11:08:26.899Z,100922.58
2018-12-23T11:10:49.913Z,100900.59
2018-12-23T11:13:15.922Z,100900.64
2018-12-23T11:15:42.020Z,100891.23
2018-12-23T11:18:07.984Z,100885.41
2018-12-23T11:20:34.068Z,100877.55
2018-12-23T11:23:00.047Z,100880.45
2018-12-23T11:25:26.131Z,100887.95
2018-12-23T11:27:52.192Z,100881.33
2018-12-23T11:30:18.207Z,100882.84
2018-12-23T11:32:44.280Z,100865.63
2018-12-23T11:35:10.398Z,100865.63
2018-12-23T11:37:36.692Z,100869.44
2018-12-23T11:40:04.772Z,100866.27
2018-12-23T11:42:30.896Z,100871.86
2018-12-23T11:44:56.872Z,100864.33
2018-12-23T11:47:22.950Z,100858.98
2018-12-23T11:49:48.948Z,100861.53
2018-12-23T11:52:14.968Z,100876.26
2018-12-23T11:54:41.055Z,100870.09
2018-12-23T11:57:07.055Z,100862.55
2018-12-23T11:59:34.340Z,100851.42
2018-12-23T12:02:00.544Z,100847.16
2018-12-23T12:04:26.496Z,100846.03
2018-12-23T12:06:52.510Z,100832.81
2018-12-23T12:09:18.484Z,100847.05
2018-12-23T12:11:44.591Z,100836.14
2018-12-23T12:14:10.725Z,100840.05
2018-12-23T12:16:36.706Z,100837.53
2018-12-23T12:19:02.693Z,100836.98
2018-12-23T12:21:28.703Z,100844.83
2018-12-23T12:23:54.686Z,100836.53
2018-12-23T12:26:20.663Z,100826.85
2018-12-23T12:28:46.713Z,100825.33
2018-12-23T12:31:12.703Z,100831.25
2018-12-23T12:33:38.767Z,100822.01
2018-12-23T12:36:04.740Z,100814.62
2018-12-23T12:38:37.688Z,100815.20
2018-12-23T12:41:03.677Z,100814.78
2018-12-23T12:43:29.691Z,100810.89
2018-12-23T12:46:00.478Z,100815.39
2018-12-23T12:48:23.698Z,100809.92
2018-12-23T12:50:49.699Z,100801.84
2018-12-23T12:53:16.266Z,100799.83
2018-12-23T12:55:42.268Z,100799.27
2018-12-23T12:58:08.384Z,100805.85
2018-12-23T13:00:34.487Z,100803.16
2018-12-23T13:03:00.558Z,100806.08
2018-12-23T13:05:26.525Z,100797.97
2018-12-23T13:07:52.528Z,100805.53
2018-12-23T13:10:18.529Z,100797.85
2018-12-23T13:12:44.482Z,100800.66
2018-12-23T13:15:10.518Z,100794.59
2018-12-23T13:17:36.523Z,100798.94
2018-12-23T13:20:03.663Z,100790.27
2018-12-23T13:22:29.679Z,100801.09
2018-12-23T13:24:55.647Z,100802.02
2018-12-23T13:27:21.757Z,100792.75
2018-12-23T13:29:47.756Z,100790.34
2018-12-23T13:32:13.799Z,100792.58
2018-12-23T13:34:39.765Z,100786.28
2018-12-23T13:37:05.781Z,100780.47
2018-12-23T13:39:31.885Z,100781.30
2018-12-23T13:42:01.961Z,100785.45
2018-12-23T13:44:40.409Z,100784.09
2018-12-23T13:47:22.345Z,100776.80
2018-12-23T13:53:56.243Z,100772.11
2018-12-23T14:00:02.854Z,100766.13
2018-12-23T14:03:08.677Z,100770.15
2018-12-23T14:06:14.465Z,100760.23
2018-12-23T14:14:54.789Z,100747.78
2018-12-23T14:17:20.823Z,100756.70
2018-12-23T14:19:46.847Z,100749.73
2018-12-23T14:22:12.873Z,100750.44
2018-12-23T14:24:38.898Z,100746.91
2018-12-23T14:27:04.939Z,100758.33
2018-12-23T14:29:30.947Z,100747.66
2018-12-23T14:31:56.953Z,100739.45
2018-12-23T14:34:42.966Z,100739.61
2018-12-23T14:37:09.029Z,100736.95
2018-12-23T14:39:35.036Z,100736.31
2018-12-23T14:42:01.069Z,100739.64
2018-12-23T14:44:27.133Z,100738.81
2018-12-23T14:49:25.568Z,100727.79
2018-12-23T14:51:51.608Z,100736.91
2018-12-23T14:54:17.613Z,100735.11
2018-12-23T14:56:43.651Z,100734.88
2018-12-23T14:59:09.661Z,100727.06
2018-12-23T15:01:35.692Z,100710.65
2018-12-23T15:04:01.697Z,100710.11
2018-12-23T15:06:27.739Z,100704.11
2018-12-23T15:08:53.725Z,100700.11
2018-12-23T15:11:19.723Z,100708.19
2018-12-23T15:13:45.795Z,100711.41
2018-12-23T15:16:11.795Z,100704.99
2018-12-23T15:18:37.813Z,100686.36
2018-12-23T15:21:03.820Z,100692.62
2018-12-23T15:23:29.854Z,100691.42
2018-12-23T15:25:55.862Z,100686.16
2018-12-23T15:28:21.897Z,100675.52
2018-12-23T15:30:47.904Z,100673.23
2018-12-23T15:33:13.932Z,100672.43
2018-12-23T15:35:39.928Z,100670.09
2018-12-23T15:38:05.954Z,100668.05
2018-12-23T15:40:31.992Z,100669.93
2018-12-23T15:42:57.980Z,100666.73
2018-12-23T15:45:24.068Z,100658.95
2018-12-23T15:47:50.063Z,100676.52
2018-12-23T15:50:16.098Z,100668.98
2018-12-23T15:53:02.076Z,100669.16
2018-12-23T15:55:28.130Z,100673.06
2018-12-23T15:57:54.172Z,100664.72
2018-12-23T16:00:20.180Z,100654.01
2018-12-23T16:02:46.216Z,100660.93
2018-12-23T16:05:12.216Z,100662.92
2018-12-23T16:07:38.262Z,100645.48
2018-12-23T16:13:17.809Z,100629.83
2018-12-23T16:15:43.821Z,100644.77
2018-12-23T16:18:09.826Z,100642.56
2018-12-23T16:20:36.672Z,100649.50
2018-12-23T16:23:03.849Z,100643.66
2018-12-23T16:25:29.878Z,100630.28
2018-12-23T16:27:55.874Z,100632.95
2018-12-23T16:30:22.740Z,100625.88
2018-12-23T16:32:49.846Z,100632.71
2018-12-23T16:35:15.933Z,100626.50
2018-12-23T16:37:41.925Z,100620.22
2018-12-23T16:40:49.604Z,100627.22
2018-12-23T16:43:15.652Z,100614.69
2018-12-23T16:48:14.231Z,100611.86
2018-12-23T16:50:40.274Z,100614.29
2018-12-23T16:53:06.275Z,100603.84
2018-12-23T16:55:34.480Z,100600.85
2018-12-23T16:58:01.463Z,100606.46
2018-12-23T17:00:28.270Z,100602.20
2018-12-23T17:02:54.295Z,100596.31
2018-12-23T17:05:20.333Z,100597.46
2018-12-23T17:08:06.341Z,100593.30
2018-12-23T17:10:32.335Z,100596.77
2018-12-23T17:12:58.366Z,100603.47
2018-12-23T17:15:24.852Z,100594.64
2018-12-23T17:17:50.872Z,100592.57
2018-12-23T17:20:16.874Z,100586.95
2018-12-23T17:22:42.931Z,100580.84
2018-12-23T17:25:08.888Z,100586.88
2018-12-23T17:27:34.928Z,100592.20
2018-12-23T17:30:00.936Z,100583.20
2018-12-23T17:32:46.820Z,100581.81
2018-12-23T17:35:13.597Z,100581.56
2018-12-23T17:37:40.875Z,100583.66
2018-12-23T17:40:06.889Z,100577.55
2018-12-23T17:42:32.938Z,100578.66
2018-12-23T17:44:58.976Z,100586.16
2018-12-23T17:47:24.987Z,100583.14
2018-12-23T17:49:51.021Z,100580.27
2018-12-23T17:52:23.164Z,100578.22
2018-12-23T17:54:45.037Z,100575.59
2018-12-23T17:57:11.088Z,100570.51
2018-12-23T17:59:37.094Z,100566.92
2018-12-23T18:02:03.142Z,100566.13
2018-12-23T18:04:29.183Z,100553.38
2018-12-23T18:09:27.828Z,100561.81
2018-12-23T18:11:53.850Z,100562.56
2018-12-23T18:14:19.857Z,100559.67
2018-12-23T18:16:46.026Z,100556.89
2018-12-23T18:19:13.884Z,100551.60
2018-12-23T18:21:39.882Z,100550.94
2018-12-23T18:24:05.918Z,100549.37
2018-12-23T18:26:31.912Z,100540.96
2018-12-23T18:28:57.938Z,100544.05
2018-12-23T18:31:23.997Z,100539.13
2018-12-23T18:33:50.035Z,100536.98
2018-12-23T18:36:16.043Z,100537.83
2018-12-23T18:38:42.066Z,100541.86
2018-12-23T18:41:08.070Z,100540.19
2018-12-23T18:43:34.102Z,100534.99
2018-12-23T18:46:00.092Z,100538.34
2018-12-23T18:48:26.129Z,100541.67
2018-12-23T18:50:52.120Z,100538.53
2018-12-23T18:53:18.161Z,100539.06
2018-12-23T18:55:44.211Z,100540.70
2018-12-23T18:58:10.197Z,100540.30
2018-12-23T19:03:30.219Z,100544.20
2018-12-23T19:05:56.274Z,100541.42
2018-12-23T19:09:04.026Z,100532.28
2018-12-23T19:12:11.702Z,100534.41
2018-12-23T19:18:31.368Z,100528.39
2018-12-23T19:24:37.929Z,100524.30
2018-12-23T19:36:44.923Z,100529.64
2018-12-23T19:39:50.722Z,100514.42
2018-12-23T19:51:59.285Z,100502.43
2018-12-23T19:55:05.091Z,100497.91
2018-12-23T19:58:10.842Z,100500.53
2018-12-23T20:01:18.530Z,100498.41
2018-12-23T20:10:39.121Z,100510.73
2018-12-23T20:13:20.907Z,100512.84
2018-12-23T20:16:26.704Z,100518.29
2018-12-23T20:19:32.471Z,100527.20
2018-12-23T20:22:38.293Z,100517.70
2018-12-23T20:25:45.983Z,100517.38
2018-12-23T20:28:51.726Z,100510.56
2018-12-23T20:31:57.530Z,100507.98
2018-12-23T20:35:03.275Z,100518.14
2018-12-23T20:38:09.077Z,100511.73
2018-12-23T20:41:14.841Z,100510.91
2018-12-23T20:44:20.641Z,100505.44
2018-12-23T20:47:26.435Z,100511.81
2018-12-23T20:50:34.142Z,100513.73
2018-12-23T20:56:53.992Z,100511.67
2018-12-23T20:59:59.827Z,100522.84
2018-12-23T21:03:05.606Z,100524.63
2018-12-23T21:06:11.355Z,100523.23
2018-12-23T21:09:19.059Z,100512.83
2018-12-23T21:15:38.413Z,100503.22
2018-12-23T21:18:44.227Z,100504.41
2018-12-23T21:24:50.410Z,100508.39
2018-12-23T21:27:56.251Z,100509.00
2018-12-23T21:31:02.005Z,100504.86
2018-12-23T21:34:07.827Z,100520.59
2018-12-23T21:37:13.623Z,100526.03
2018-12-23T21:40:19.408Z,100526.38
2018-12-23T21:43:25.243Z,100521.39
2018-12-23T21:46:32.929Z,100518.52
2018-12-23T21:49:38.680Z,100516.45
2018-12-23T21:52:44.472Z,100506.25
2018-12-23T21:55:50.290Z,100517.78
2018-12-23T21:58:56.110Z,100535.83
2018-12-23T22:11:03.748Z,100534.49
2018-12-23T22:13:29.814Z,100529.43
2018-12-23T22:15:55.805Z,100526.66
2018-12-23T22:18:21.825Z,100524.77
2018-12-23T22:20:47.838Z,100536.89
2018-12-23T22:23:13.890Z,100535.25
2018-12-23T22:25:39.903Z,100535.49
2018-12-23T22:28:05.970Z,100527.28
2018-12-23T22:30:31.996Z,100523.82
2018-12-23T22:32:59.386Z,100524.48
2018-12-23T22:35:25.967Z,100524.45
2018-12-23T22:37:52.002Z,100522.34
2018-12-23T22:40:18.055Z,100527.14
2018-12-23T22:42:44.063Z,100528.05
2018-12-23T22:45:10.139Z,100528.67
2018-12-23T22:47:36.143Z,100540.32
2018-12-23T22:50:02.193Z,100536.31
2018-12-23T22:52:28.203Z,100542.37
2018-12-23T22:54:54.239Z,100546.47
2018-12-23T22:57:20.257Z,100555.97
2018-12-23T22:59:46.310Z,100546.32
2018-12-23T23:02:12.307Z,100548.92
2018-12-23T23:04:38.412Z,100550.94
2018-12-23T23:07:04.452Z,100549.99
2018-12-23T23:09:30.447Z,100556.28
2018-12-23T23:11:56.501Z,100560.08
2018-12-23T23:14:22.511Z,100562.36
2018-12-23T23:16:48.535Z,100561.48
2018-12-23T23:19:14.536Z,100564.31
2018-12-23T23:21:40.590Z,100565.48
2018-12-23T23:24:06.587Z,100561.45
2018-12-23T23:26:32.602Z,100563.03
2018-12-23T23:28:58.592Z,100562.70
2018-12-23T23:31:24.623Z,100561.94
2018-12-23T23:33:50.654Z,100561.44
2018-12-23T23:36:16.685Z,100571.20
2018-12-23T23:38:42.750Z,100560.56
2018-12-23T23:41:08.756Z,100568.05
2018-12-23T23:43:34.754Z,100566.09
2018-12-23T23:46:00.780Z,100560.48
2018-12-23T23:48:26.814Z,100569.55
2018-12-23T23:50:52.854Z,100571.40
2018-12-23T23:53:18.906Z,100574.99
2018-12-23T23:55:44.942Z,100571.11
2018-12-23T23:58:10.982Z,100572.59
